Aérodrome :
LOGIN :

S'inscrire | Disclaimer

   EN    FR    IT 

 










Légende :    VFR   VFR Marginal   IFR   IFR Intensif   IFR Très Intensif
Visi : 
Plafond : 
>= 8 km
>= 3000ft
5 à 8 km
1000 à 3000 ft
1500m à 5 km
500 à 1000 ft
800 à 1500m
200 à 500 ft
< 800m
< 200 ft
Symboles :   Orages  Brouillard  Fortes neiges  Fortes précipitations  Vent > 20 kt
SIGMETs :   Divers  Orages  Givrage  Turbulence  Onde Orograph.  Cendres Volcan.






- Altitude de l'aérodrome : 1830 ft


EBLB - Butgenbach Elsenborn

DERNIER METAR :
  • 312125Z AUTO 23009KT 9999 OVC004/// 11/11 Q1016 YLO

METARs EXPIRÉS :
  • 312055Z AUTO 23008KT 4000 DZ OVC005/// 11/10 Q1016 YLO
  • 312025Z AUTO 22008KT 3400 -RA OVC008/// 11/10 Q1016 YLO
  • 312013Z AUTO 22008KT 2500 DZ OVC009/// 11/10 Q1016 YLO
  • 311955Z AUTO 21008KT 9999 -DZ OVC012/// 11/10 Q1016 GRN
  • 311933Z AUTO 21007KT 9999 -RA OVC014/// 11/10 Q1016 GRN
  • 311922Z AUTO 21008KT 6000 RA OVC015/// 10/10 Q1016 WHT
  • 311855Z AUTO 22008KT 9999 BKN022/// OVC063/// 11/09 Q1016 WHT

Prévision TAF périmée.



MET'MAP, la Météo Aéronautique d'un coup d'oeil ! - Copyright ORBIFLY Décembre 2007 - Disclaimer

ORBIFLY MET'MAP TEAM :

Programmation & Développement : Alexandra Zaïnal
Sur une idée originale de : Baudouin d'Aumeries
Assistance à la programmation : Marc-Olivier Méhu
Soutien technique & logistique : Manuel Goepfert

Contact : metmap@orbifly.com




SOURCES & CREDITS :

   NOAA